King's Park, China
Current Conditions -  °F | °C
As of 8:30 AM on Saturday 22 Nov 2014 (Local Time) from VHHH Reporting Station
Clear Clear  
Wind Chill: 75°   Ceiling: Unl
Heat Index: 75°   Visibility: 6mi
Dew Point: 64°   Wind: 7mph
Humidity: 69%   Direction: 60°ENE
Pressure: 30.03"   Gusts: NA
Location:  22.32°N, 114.17°E
Report Text: VHHH 220030Z 06006KT CAVOK 24/18 Q1017 NOSIG
Loading
Personal Weather Stations






























Interactive Weather Map New forecast layout! Learn more

10-Day Weather Forecast

Advertisements
Track Severe Weather on mobile